createdAt,value
2022-09-16T00:00:32.627Z,70.09
2022-09-16T00:01:37.031Z,70.22
2022-09-16T00:02:40.206Z,70.10
2022-09-16T00:03:43.242Z,70.06
2022-09-16T00:04:44.798Z,70.01
2022-09-16T00:05:49.421Z,70.13
2022-09-16T00:06:52.320Z,69.81
2022-09-16T00:07:55.511Z,70.08
2022-09-16T00:09:00.275Z,69.63
2022-09-16T00:10:02.826Z,69.67
2022-09-16T00:11:04.563Z,70.00
2022-09-16T00:12:08.014Z,69.54
2022-09-16T00:13:10.406Z,69.61
2022-09-16T00:14:12.907Z,69.70
2022-09-16T00:15:14.568Z,69.49
2022-09-16T00:16:20.988Z,69.52
2022-09-16T00:17:22.875Z,69.68
2022-09-16T00:18:25.535Z,69.32
2022-09-16T00:19:27.067Z,69.62
2022-09-16T00:20:29.698Z,69.54
2022-09-16T00:21:31.561Z,69.36
2022-09-16T00:22:35.974Z,69.40
2022-09-16T00:23:38.088Z,69.52
2022-09-16T00:24:40.585Z,69.22
2022-09-16T00:25:42.131Z,69.47
2022-09-16T00:26:44.871Z,69.33
2022-09-16T00:27:48.078Z,69.14
2022-09-16T00:28:51.518Z,69.33
2022-09-16T00:29:53.692Z,69.10
2022-09-16T00:30:59.969Z,69.20
2022-09-16T00:32:01.937Z,69.23
2022-09-16T00:33:04.604Z,69.29
2022-09-16T00:34:06.408Z,69.34
2022-09-16T00:35:09.153Z,69.30
2022-09-16T00:36:12.852Z,69.36
2022-09-16T00:37:15.451Z,69.26
2022-09-16T00:38:18.379Z,69.22
2022-09-16T00:39:20.908Z,69.37
2022-09-16T00:40:22.938Z,69.36
2022-09-16T00:41:28.024Z,69.54
2022-09-16T00:42:29.564Z,69.59
2022-09-16T00:43:49.515Z,69.62
2022-09-16T00:44:57.204Z,69.70
2022-09-16T00:46:05.856Z,69.90
2022-09-16T00:47:07.475Z,69.80
2022-09-16T00:48:16.446Z,69.94
2022-09-16T00:49:25.078Z,70.03
2022-09-16T00:50:35.914Z,70.05
2022-09-16T00:51:38.338Z,70.02
2022-09-16T00:52:42.895Z,70.07
2022-09-16T00:53:52.004Z,70.16
2022-09-16T00:54:54.914Z,70.31
2022-09-16T00:55:59.860Z,70.12
2022-09-16T00:57:04.717Z,70.50
2022-09-16T00:58:12.356Z,70.42
2022-09-16T00:59:19.074Z,70.54
2022-09-16T01:00:20.878Z,70.73
2022-09-16T01:01:23.607Z,70.87
2022-09-16T01:02:26.255Z,70.63
2022-09-16T01:03:31.197Z,70.83
2022-09-16T01:04:40.404Z,70.70
2022-09-16T01:05:45.283Z,71.18
2022-09-16T01:06:47.073Z,70.97
2022-09-16T01:07:51.639Z,71.27
2022-09-16T01:08:56.087Z,71.12
2022-09-16T01:09:59.555Z,71.23
2022-09-16T01:11:01.359Z,71.30
2022-09-16T01:12:03.973Z,71.20
2022-09-16T01:13:10.085Z,71.33
2022-09-16T01:14:31.081Z,71.51
2022-09-16T01:15:40.358Z,71.13
2022-09-16T01:16:44.954Z,71.22
2022-09-16T01:17:57.880Z,71.28
2022-09-16T01:19:09.831Z,71.36
2022-09-16T01:20:32.444Z,71.50
2022-09-16T01:21:44.206Z,71.58
2022-09-16T01:23:07.970Z,71.53
2022-09-16T01:24:36.367Z,71.37
2022-09-16T01:25:55.654Z,71.63
2022-09-16T01:27:31.353Z,71.50
2022-09-16T01:28:58.224Z,71.53
2022-09-16T01:30:41.164Z,71.58
2022-09-16T01:31:49.440Z,71.40
2022-09-16T01:33:04.767Z,71.60
2022-09-16T01:34:17.333Z,71.76
2022-09-16T01:35:28.210Z,71.86
2022-09-16T01:36:44.665Z,71.96
2022-09-16T01:37:57.945Z,71.95
2022-09-16T01:39:10.125Z,72.08
2022-09-16T01:40:18.398Z,71.96
2022-09-16T01:41:28.114Z,71.99
2022-09-16T01:42:37.556Z,71.99
2022-09-16T01:43:51.666Z,71.79
2022-09-16T01:45:01.615Z,71.92
2022-09-16T01:46:16.457Z,71.67
2022-09-16T01:47:23.739Z,71.63
2022-09-16T01:48:34.776Z,71.66
2022-09-16T01:49:47.097Z,71.84
2022-09-16T01:50:58.308Z,71.75
2022-09-16T01:52:12.486Z,71.77
2022-09-16T01:53:19.527Z,71.66
2022-09-16T01:54:27.116Z,71.72
2022-09-16T01:55:33.036Z,71.68
2022-09-16T01:56:43.260Z,71.83
2022-09-16T01:57:50.548Z,71.79
2022-09-16T01:58:57.089Z,71.85
2022-09-16T02:00:02.728Z,71.87
2022-09-16T02:01:13.864Z,71.73
2022-09-16T02:02:20.041Z,71.83
2022-09-16T02:03:27.891Z,71.75
2022-09-16T02:04:34.788Z,71.61
2022-09-16T02:05:45.993Z,71.89
2022-09-16T02:06:50.753Z,71.72
2022-09-16T02:07:58.167Z,71.90
2022-09-16T02:09:04.575Z,71.95
2022-09-16T02:10:14.463Z,71.92
2022-09-16T02:11:18.080Z,72.00
2022-09-16T02:12:26.459Z,71.93
2022-09-16T02:13:32.776Z,71.83
2022-09-16T02:14:40.552Z,71.64
2022-09-16T02:15:43.853Z,71.80
2022-09-16T02:16:52.968Z,71.69
2022-09-16T02:18:01.167Z,71.77
2022-09-16T02:19:12.341Z,71.77
2022-09-16T02:20:19.953Z,71.57
2022-09-16T02:21:26.498Z,71.84
2022-09-16T02:22:34.865Z,71.51
2022-09-16T02:23:42.568Z,71.56
2022-09-16T02:24:46.698Z,71.54
2022-09-16T02:25:51.031Z,71.70
2022-09-16T02:26:56.764Z,71.71
2022-09-16T02:28:03.494Z,71.70
2022-09-16T02:29:10.695Z,71.37
2022-09-16T02:30:17.784Z,71.51
2022-09-16T02:31:23.771Z,71.64
2022-09-16T02:32:32.134Z,71.55
2022-09-16T02:33:39.780Z,71.38
2022-09-16T02:34:46.233Z,71.48
2022-09-16T02:35:51.934Z,71.22
2022-09-16T02:37:01.624Z,71.51
2022-09-16T02:38:07.150Z,71.43
2022-09-16T02:39:13.853Z,71.43
2022-09-16T02:40:19.850Z,71.25
2022-09-16T02:41:23.562Z,71.65
2022-09-16T02:42:25.462Z,71.26
2022-09-16T02:43:29.399Z,71.55
2022-09-16T02:44:31.404Z,71.48
2022-09-16T02:45:41.874Z,71.62
2022-09-16T02:46:56.333Z,71.72
2022-09-16T02:48:06.325Z,71.62
2022-09-16T02:49:14.582Z,71.54
2022-09-16T02:50:24.519Z,71.85
2022-09-16T02:51:37.353Z,71.96
2022-09-16T02:52:47.498Z,72.03
2022-09-16T02:53:54.888Z,71.65
2022-09-16T02:55:06.816Z,71.70
2022-09-16T02:56:15.450Z,71.86
2022-09-16T02:57:18.531Z,72.12
2022-09-16T02:58:20.312Z,72.23
2022-09-16T02:59:23.489Z,72.25
2022-09-16T03:00:25.758Z,72.14
2022-09-16T03:01:30.143Z,72.40
2022-09-16T03:02:32.856Z,72.46
2022-09-16T03:03:37.123Z,72.78
2022-09-16T03:04:39.075Z,72.65
2022-09-16T03:06:07.941Z,72.94
2022-09-16T03:07:12.245Z,72.90
2022-09-16T03:08:14.080Z,72.95
2022-09-16T03:09:19.046Z,73.08
2022-09-16T03:10:25.644Z,73.17
2022-09-16T03:12:06.662Z,73.23
2022-09-16T03:13:16.721Z,73.32
2022-09-16T03:14:36.213Z,73.29
2022-09-16T03:15:51.444Z,73.55
2022-09-16T03:17:02.405Z,73.60
2022-09-16T03:18:21.614Z,73.60
2022-09-16T03:19:34.444Z,73.60
2022-09-16T03:20:47.684Z,73.62
2022-09-16T03:21:59.703Z,74.00
2022-09-16T03:23:08.944Z,73.86
2022-09-16T03:24:16.568Z,73.80
2022-09-16T03:25:33.588Z,73.80
2022-09-16T03:26:42.476Z,74.28
2022-09-16T03:27:51.894Z,74.07
2022-09-16T03:29:05.496Z,73.93
2022-09-16T03:30:10.906Z,74.60
2022-09-16T03:31:18.489Z,74.39
2022-09-16T03:32:25.064Z,74.42
2022-09-16T03:33:32.428Z,74.44
2022-09-16T03:34:41.057Z,74.61
2022-09-16T03:35:45.481Z,74.72
2022-09-16T03:36:53.827Z,74.32
2022-09-16T03:37:58.240Z,74.82
2022-09-16T03:39:02.512Z,74.63
2022-09-16T03:40:09.960Z,75.08
2022-09-16T03:41:13.483Z,75.13
2022-09-16T03:42:16.052Z,74.93
2022-09-16T03:43:18.989Z,75.08
2022-09-16T03:44:21.522Z,75.14
2022-09-16T03:45:23.707Z,75.33
2022-09-16T03:46:28.671Z,75.33
2022-09-16T03:47:30.245Z,75.42
2022-09-16T03:48:32.742Z,75.55
2022-09-16T03:49:36.511Z,75.54
2022-09-16T03:50:39.088Z,75.59
2022-09-16T03:51:40.630Z,75.55
2022-09-16T03:52:43.188Z,75.42
2022-09-16T03:53:44.762Z,75.94
2022-09-16T03:54:47.329Z,75.89
2022-09-16T03:55:49.216Z,75.80
2022-09-16T03:56:51.809Z,76.06
2022-09-16T03:57:53.438Z,76.05
2022-09-16T03:58:55.985Z,75.91
2022-09-16T03:59:57.609Z,75.97
2022-09-16T04:01:00.115Z,76.16
2022-09-16T04:02:03.078Z,75.82
2022-09-16T04:03:05.922Z,76.41
2022-09-16T04:04:07.919Z,76.17
2022-09-16T04:05:12.063Z,76.47
2022-09-16T04:06:13.759Z,76.27
2022-09-16T04:07:16.354Z,76.55
2022-09-16T04:08:17.906Z,76.44
2022-09-16T04:09:20.483Z,76.55
2022-09-16T04:10:22.304Z,76.60
2022-09-16T04:11:24.766Z,76.58
2022-09-16T04:12:26.302Z,76.62
2022-09-16T04:13:31.035Z,76.79
2022-09-16T04:14:33.540Z,76.78
2022-09-16T04:15:36.933Z,76.92
2022-09-16T04:16:43.001Z,76.74
2022-09-16T04:17:46.627Z,76.94
2022-09-16T04:18:49.861Z,76.86
2022-09-16T04:19:52.964Z,76.86
2022-09-16T04:20:59.233Z,77.19
2022-09-16T04:22:04.137Z,77.03
2022-09-16T04:23:05.710Z,76.88
2022-09-16T04:24:12.659Z,77.09
2022-09-16T04:25:16.472Z,77.03
2022-09-16T04:26:19.196Z,77.13
2022-09-16T04:27:20.732Z,77.16
2022-09-16T04:28:23.352Z,76.90
2022-09-16T04:29:24.937Z,77.09
2022-09-16T04:30:27.545Z,77.00
2022-09-16T04:31:29.087Z,77.24
2022-09-16T04:32:31.637Z,77.46
2022-09-16T04:33:35.335Z,77.36
2022-09-16T04:34:37.849Z,77.78
2022-09-16T04:35:39.403Z,77.78
2022-09-16T04:36:43.326Z,77.75
2022-09-16T04:37:46.609Z,77.91
2022-09-16T04:38:50.461Z,77.97
2022-09-16T04:39:53.292Z,77.99
2022-09-16T04:41:00.988Z,78.45
2022-09-16T04:42:05.331Z,78.40
2022-09-16T04:43:09.510Z,78.34
2022-09-16T04:44:12.206Z,78.85
2022-09-16T04:45:13.859Z,79.01
2022-09-16T04:46:16.485Z,78.96
2022-09-16T04:47:18.059Z,78.75
2022-09-16T04:48:22.504Z,78.91
2022-09-16T04:49:24.093Z,78.90
2022-09-16T04:50:27.597Z,79.24
2022-09-16T04:51:29.695Z,79.09
2022-09-16T04:52:34.336Z,79.24
2022-09-16T04:53:37.059Z,79.50
2022-09-16T04:54:39.595Z,79.54
2022-09-16T04:55:41.160Z,79.41
2022-09-16T04:56:43.668Z,79.59
2022-09-16T04:57:45.229Z,79.85
2022-09-16T04:58:49.050Z,79.67
2022-09-16T04:59:50.621Z,79.63
2022-09-16T05:00:53.466Z,80.02
2022-09-16T05:01:55.070Z,79.92
2022-09-16T05:02:57.964Z,79.79
2022-09-16T05:04:01.467Z,79.88
2022-09-16T05:05:04.502Z,80.12
2022-09-16T05:06:08.057Z,80.30
2022-09-16T05:07:10.862Z,80.39
2022-09-16T05:08:13.795Z,80.01
2022-09-16T05:09:16.270Z,80.19
2022-09-16T05:10:17.932Z,80.16
2022-09-16T05:11:22.818Z,80.21
2022-09-16T05:12:25.569Z,80.21
2022-09-16T05:13:30.007Z,80.18
2022-09-16T05:14:32.661Z,80.18
2022-09-16T05:15:34.287Z,80.23
2022-09-16T05:16:39.865Z,80.30
2022-09-16T05:17:50.943Z,80.27
2022-09-16T05:18:56.245Z,80.16
2022-09-16T05:19:58.139Z,80.23
2022-09-16T05:21:01.612Z,80.15
2022-09-16T05:22:07.095Z,80.02
2022-09-16T05:23:10.574Z,80.10
2022-09-16T05:24:15.017Z,80.24
2022-09-16T05:25:16.877Z,80.35
2022-09-16T05:26:21.865Z,79.98
2022-09-16T05:27:23.644Z,80.10
2022-09-16T05:28:26.119Z,80.17
2022-09-16T05:29:27.659Z,80.08
2022-09-16T05:30:30.210Z,79.76
2022-09-16T05:31:33.531Z,79.75
2022-09-16T05:32:36.207Z,79.96
2022-09-16T05:33:38.266Z,79.55
2022-09-16T05:34:40.799Z,79.80
2022-09-16T05:35:42.794Z,79.59
2022-09-16T05:36:47.522Z,79.63
2022-09-16T05:37:49.677Z,79.62
2022-09-16T05:39:18.199Z,79.42
2022-09-16T05:40:15.942Z,79.45
2022-09-16T05:41:18.687Z,79.37
2022-09-16T05:42:20.227Z,79.42
2022-09-16T05:43:22.761Z,79.22
2022-09-16T05:44:25.260Z,79.01
2022-09-16T05:45:32.071Z,79.23
2022-09-16T05:46:35.086Z,78.95
2022-09-16T05:47:37.680Z,78.70
2022-09-16T05:48:39.324Z,79.06
2022-09-16T05:49:41.849Z,78.71
2022-09-16T05:50:51.964Z,78.86
2022-09-16T05:51:54.911Z,78.47
2022-09-16T05:52:57.428Z,78.67
2022-09-16T05:54:00.810Z,78.67
2022-09-16T05:55:02.378Z,78.39
2022-09-16T05:56:08.186Z,78.21
2022-09-16T05:57:11.159Z,78.58
2022-09-16T05:58:12.717Z,78.39
2022-09-16T05:59:16.458Z,78.24
2022-09-16T06:00:18.154Z,77.95
2022-09-16T06:01:22.471Z,78.13
2022-09-16T06:02:25.672Z,78.17
2022-09-16T06:03:28.208Z,77.83
2022-09-16T06:04:30.896Z,77.77
2022-09-16T06:05:32.984Z,77.90
2022-09-16T06:06:37.074Z,77.74
2022-09-16T06:07:38.607Z,77.79
2022-09-16T06:08:42.024Z,77.81
2022-09-16T06:09:43.632Z,77.98
2022-09-16T06:10:46.146Z,77.57
2022-09-16T06:11:50.805Z,77.86
2022-09-16T06:12:53.290Z,77.88
2022-09-16T06:13:56.436Z,77.96
2022-09-16T06:14:58.977Z,77.86
2022-09-16T06:16:01.845Z,77.43
2022-09-16T06:17:04.519Z,77.59
2022-09-16T06:18:06.653Z,77.51
2022-09-16T06:19:13.034Z,77.48
2022-09-16T06:20:16.028Z,77.18
2022-09-16T06:21:18.675Z,76.91
2022-09-16T06:22:21.275Z,76.88
2022-09-16T06:23:23.914Z,76.85
2022-09-16T06:24:26.520Z,76.66
2022-09-16T06:25:28.094Z,76.48
2022-09-16T06:26:31.451Z,76.53
2022-09-16T06:27:34.340Z,76.52
2022-09-16T06:28:37.201Z,76.20
2022-09-16T06:29:38.732Z,76.40
2022-09-16T06:30:42.171Z,76.24
2022-09-16T06:31:44.766Z,76.21
2022-09-16T06:32:46.319Z,76.26
2022-09-16T06:33:50.171Z,76.39
2022-09-16T06:34:52.704Z,76.22
2022-09-16T06:35:54.416Z,76.03
2022-09-16T06:36:56.917Z,76.18
2022-09-16T06:37:59.359Z,75.82
2022-09-16T06:39:02.021Z,75.95
2022-09-16T06:40:04.382Z,75.88
2022-09-16T06:41:09.118Z,75.64
2022-09-16T06:42:10.699Z,75.67
2022-09-16T06:43:14.498Z,75.52
2022-09-16T06:44:16.979Z,75.69
2022-09-16T06:45:18.522Z,75.26
2022-09-16T06:46:23.297Z,75.34
2022-09-16T06:47:24.877Z,75.23
2022-09-16T06:48:28.118Z,75.15
2022-09-16T06:49:30.997Z,75.15
2022-09-16T06:50:32.669Z,75.27
2022-09-16T06:51:37.298Z,75.00
2022-09-16T06:52:38.916Z,74.88
2022-09-16T06:53:42.101Z,74.96
2022-09-16T06:54:43.897Z,75.11
2022-09-16T06:55:46.454Z,75.16
2022-09-16T06:56:48.075Z,74.86
2022-09-16T06:57:50.993Z,74.92
2022-09-16T06:58:55.735Z,74.67
2022-09-16T06:59:58.339Z,74.83
2022-09-16T07:01:04.234Z,74.94
2022-09-16T07:02:07.045Z,74.46
2022-09-16T07:03:08.750Z,74.47
2022-09-16T07:04:13.175Z,74.50
2022-09-16T07:05:15.066Z,74.34
2022-09-16T07:06:20.074Z,74.42
2022-09-16T07:07:21.610Z,74.43
2022-09-16T07:08:24.757Z,74.30
2022-09-16T07:09:27.068Z,74.27
2022-09-16T07:10:30.585Z,74.22
2022-09-16T07:11:32.489Z,74.17
2022-09-16T07:12:34.995Z,74.06
2022-09-16T07:13:37.732Z,73.93
2022-09-16T07:14:41.629Z,73.80
2022-09-16T07:16:09.359Z,74.02
2022-09-16T07:17:06.153Z,73.96
2022-09-16T07:18:07.790Z,74.00
2022-09-16T07:19:10.455Z,73.76
2022-09-16T07:20:13.072Z,73.88
2022-09-16T07:21:17.275Z,73.79
2022-09-16T07:22:19.786Z,73.81
2022-09-16T07:23:21.324Z,73.97
2022-09-16T07:24:24.543Z,73.82
2022-09-16T07:25:26.869Z,73.79
2022-09-16T07:26:31.440Z,73.83
2022-09-16T07:27:32.985Z,73.71
2022-09-16T07:28:36.522Z,73.46
2022-09-16T07:29:39.073Z,73.58
2022-09-16T07:30:42.908Z,73.84
2022-09-16T07:31:45.549Z,73.78
2022-09-16T07:32:47.083Z,73.80
2022-09-16T07:33:50.911Z,73.80
2022-09-16T07:34:53.857Z,73.81
2022-09-16T07:35:59.340Z,73.88
2022-09-16T07:37:01.218Z,73.81
2022-09-16T07:38:03.720Z,73.98
2022-09-16T07:39:06.665Z,73.96
2022-09-16T07:40:09.997Z,73.98
2022-09-16T07:41:14.832Z,74.19
2022-09-16T07:42:17.312Z,73.95
2022-09-16T07:43:19.089Z,74.22
2022-09-16T07:44:21.990Z,74.20
2022-09-16T07:45:23.535Z,74.25
2022-09-16T07:46:28.759Z,74.23
2022-09-16T07:47:31.344Z,74.06
2022-09-16T07:48:35.326Z,74.04
2022-09-16T07:49:38.094Z,73.87
2022-09-16T07:50:39.638Z,74.17
2022-09-16T07:51:42.450Z,73.93
2022-09-16T07:53:47.585Z,74.14
2022-09-16T07:54:50.313Z,74.03
2022-09-16T07:55:51.860Z,73.86
2022-09-16T07:56:54.410Z,73.77
2022-09-16T07:57:56.509Z,74.02
2022-09-16T07:58:59.254Z,73.99
2022-09-16T08:00:02.304Z,73.69
2022-09-16T08:01:15.823Z,73.72
2022-09-16T08:02:19.885Z,73.62
2022-09-16T08:03:21.584Z,73.76
2022-09-16T08:04:24.258Z,73.61
2022-09-16T08:05:25.872Z,73.62
2022-09-16T08:06:30.729Z,73.51
2022-09-16T08:07:33.266Z,73.58
2022-09-16T08:08:35.129Z,73.52
2022-09-16T08:09:45.139Z,73.34
2022-09-16T08:10:57.018Z,73.35
2022-09-16T08:12:00.444Z,73.20
2022-09-16T08:13:02.953Z,73.23
2022-09-16T08:14:05.553Z,72.95
2022-09-16T08:15:09.494Z,72.98
2022-09-16T08:16:13.401Z,72.73
2022-09-16T08:17:16.118Z,72.76
2022-09-16T08:18:19.096Z,72.54
2022-09-16T08:19:22.500Z,72.58
2022-09-16T08:20:26.003Z,72.32
2022-09-16T08:21:30.070Z,72.00
2022-09-16T08:22:31.980Z,72.17
2022-09-16T08:23:34.650Z,72.13
2022-09-16T08:24:36.218Z,71.92
2022-09-16T08:25:39.073Z,72.13
2022-09-16T08:26:40.924Z,72.01
2022-09-16T08:27:43.402Z,71.92
2022-09-16T08:29:07.781Z,71.75
2022-09-16T08:30:12.140Z,71.60
2022-09-16T08:31:13.928Z,71.44
2022-09-16T08:32:16.404Z,71.16
2022-09-16T08:33:21.412Z,71.17
2022-09-16T08:34:24.073Z,70.97
2022-09-16T08:35:26.510Z,70.99
2022-09-16T08:36:29.039Z,70.77
2022-09-16T08:37:31.575Z,70.81
2022-09-16T08:38:33.529Z,70.48
2022-09-16T08:39:36.086Z,70.41
2022-09-16T08:40:37.794Z,70.47
2022-09-16T08:42:00.038Z,70.16
2022-09-16T08:43:09.194Z,70.13
2022-09-16T08:44:22.266Z,69.82
2022-09-16T08:45:30.964Z,69.59
2022-09-16T08:46:40.872Z,69.47
2022-09-16T08:47:51.912Z,69.39
2022-09-16T08:49:01.393Z,69.18
2022-09-16T08:50:11.222Z,68.80
2022-09-16T08:51:18.208Z,68.64
2022-09-16T08:52:29.596Z,68.33
2022-09-16T08:53:38.840Z,68.31
2022-09-16T08:54:45.056Z,68.21
2022-09-16T08:55:50.464Z,67.99
2022-09-16T08:56:54.192Z,67.79
2022-09-16T08:58:00.908Z,67.57
2022-09-16T08:59:10.188Z,67.42
2022-09-16T09:00:15.574Z,67.04
2022-09-16T09:01:24.449Z,66.63
2022-09-16T09:03:46.409Z,66.24
2022-09-16T09:04:50.495Z,66.01
2022-09-16T09:05:54.364Z,66.02
2022-09-16T09:07:05.687Z,65.94
2022-09-16T09:08:23.168Z,65.90
2022-09-16T09:09:48.308Z,65.89
2022-09-16T09:10:53.734Z,65.72
2022-09-16T09:12:02.403Z,65.67
2022-09-16T09:13:15.693Z,65.74
2022-09-16T09:14:38.249Z,66.01
2022-09-16T09:15:46.161Z,65.92
2022-09-16T09:16:59.656Z,65.75
2022-09-16T09:18:16.134Z,65.78
2022-09-16T09:19:36.712Z,65.63
2022-09-16T09:20:49.524Z,65.39
2022-09-16T09:22:00.599Z,65.28
2022-09-16T09:23:15.084Z,65.21
2022-09-16T09:24:32.492Z,65.10
2022-09-16T09:25:42.828Z,64.98
2022-09-16T09:26:50.789Z,64.71
2022-09-16T09:28:03.295Z,64.45
2022-09-16T09:29:28.611Z,63.86
2022-09-16T09:30:34.744Z,63.85
2022-09-16T09:31:47.600Z,63.61
2022-09-16T09:33:27.732Z,63.36
2022-09-16T09:34:44.108Z,63.13
2022-09-16T09:36:13.771Z,63.11
2022-09-16T09:37:29.402Z,63.14
2022-09-16T09:38:55.967Z,62.82
2022-09-16T09:40:09.513Z,62.93
2022-09-16T09:41:14.632Z,63.02
2022-09-16T09:42:21.537Z,62.73
2022-09-16T09:43:29.865Z,62.65
2022-09-16T09:44:41.764Z,62.58
2022-09-16T09:45:53.830Z,62.49
2022-09-16T09:47:01.973Z,62.55
2022-09-16T09:48:19.190Z,62.44
2022-09-16T09:49:28.947Z,62.18
2022-09-16T09:50:40.071Z,61.94
2022-09-16T09:51:49.207Z,61.63
2022-09-16T09:52:57.856Z,61.40
2022-09-16T09:54:02.941Z,61.24
2022-09-16T09:55:16.314Z,61.10
2022-09-16T09:56:22.742Z,60.99
2022-09-16T09:57:30.344Z,60.82
2022-09-16T09:58:39.823Z,60.75
2022-09-16T09:59:47.946Z,60.67
2022-09-16T10:00:53.056Z,60.90
2022-09-16T10:01:55.251Z,61.05
2022-09-16T10:03:05.136Z,60.80
2022-09-16T10:04:13.598Z,60.79
2022-09-16T10:05:21.839Z,60.84
2022-09-16T10:06:28.874Z,60.75
2022-09-16T10:07:33.428Z,60.71
2022-09-16T10:08:45.959Z,60.49
2022-09-16T10:09:51.627Z,60.76
2022-09-16T10:10:56.413Z,60.83
2022-09-16T10:11:59.447Z,60.88
2022-09-16T10:13:09.806Z,60.57
2022-09-16T10:14:23.250Z,60.16
2022-09-16T10:15:30.803Z,59.89
2022-09-16T10:16:34.563Z,59.89
2022-09-16T10:17:37.113Z,59.88
2022-09-16T10:18:39.675Z,59.45
2022-09-16T10:19:52.926Z,59.33
2022-09-16T10:21:01.819Z,59.38
2022-09-16T10:22:11.405Z,59.10
2022-09-16T10:23:16.128Z,59.11
2022-09-16T10:24:32.625Z,59.13
2022-09-16T10:25:34.742Z,59.29
2022-09-16T10:26:41.513Z,59.28
2022-09-16T10:27:43.103Z,59.30
2022-09-16T10:29:00.844Z,59.58
2022-09-16T10:30:08.181Z,59.74
2022-09-16T10:31:12.162Z,59.84
2022-09-16T10:32:18.567Z,60.12
2022-09-16T10:33:25.751Z,60.73
2022-09-16T10:34:33.246Z,60.96
2022-09-16T10:35:38.275Z,61.30
2022-09-16T10:36:39.905Z,61.43
2022-09-16T10:37:50.581Z,61.59
2022-09-16T10:39:04.530Z,61.69
2022-09-16T10:40:17.322Z,61.86
2022-09-16T10:41:23.756Z,62.07
2022-09-16T10:42:28.943Z,62.30
2022-09-16T10:43:32.593Z,62.58
2022-09-16T10:44:36.507Z,62.52
2022-09-16T10:45:47.602Z,62.71
2022-09-16T10:46:55.045Z,63.23
2022-09-16T10:48:04.824Z,63.59
2022-09-16T10:49:11.661Z,63.82
2022-09-16T10:50:18.980Z,63.85
2022-09-16T10:51:24.012Z,63.83
2022-09-16T10:52:27.713Z,63.85
2022-09-16T10:53:32.867Z,64.08
2022-09-16T10:54:36.792Z,64.29
2022-09-16T10:55:39.359Z,64.55
2022-09-16T10:56:50.404Z,64.67
2022-09-16T10:57:54.005Z,64.67
2022-09-16T10:59:03.923Z,64.99
2022-09-16T11:00:14.685Z,64.92
2022-09-16T11:01:39.812Z,65.01
2022-09-16T11:03:03.206Z,65.05
2022-09-16T11:04:22.352Z,65.18
2022-09-16T11:05:34.385Z,64.99
2022-09-16T11:06:57.353Z,64.93
2022-09-16T11:08:09.360Z,64.46
2022-09-16T11:09:18.188Z,64.26
2022-09-16T11:10:28.795Z,63.98
2022-09-16T11:11:48.722Z,63.87
2022-09-16T11:13:32.570Z,63.88
2022-09-16T11:14:49.393Z,63.46
2022-09-16T11:16:03.709Z,63.41
2022-09-16T11:17:26.693Z,63.46
2022-09-16T11:18:44.155Z,63.42
2022-09-16T11:19:58.905Z,63.17
2022-09-16T11:21:21.195Z,63.47
2022-09-16T11:22:30.912Z,63.08
2022-09-16T11:23:49.135Z,62.92
2022-09-16T11:25:17.055Z,62.77
2022-09-16T11:26:29.098Z,62.77
2022-09-16T11:27:43.688Z,62.55
2022-09-16T11:29:03.592Z,62.14
2022-09-16T11:30:13.646Z,62.21
2022-09-16T11:31:28.556Z,61.85
2022-09-16T11:32:51.512Z,61.71
2022-09-16T11:34:05.820Z,61.44
2022-09-16T11:35:28.084Z,61.12
2022-09-16T11:36:51.030Z,60.85
2022-09-16T11:37:59.563Z,60.42
2022-09-16T11:39:15.418Z,60.08
2022-09-16T11:40:30.145Z,59.79
2022-09-16T11:41:37.904Z,59.79
2022-09-16T11:42:42.867Z,59.62
2022-09-16T11:44:03.840Z,59.51
2022-09-16T11:45:21.582Z,59.42
2022-09-16T11:46:34.154Z,59.63
2022-09-16T11:47:52.902Z,59.98
2022-09-16T11:49:15.782Z,60.31
2022-09-16T11:50:25.889Z,60.78
2022-09-16T11:51:42.922Z,61.43
2022-09-16T11:53:04.870Z,62.05
2022-09-16T11:55:39.498Z,63.58
2022-09-16T11:56:46.906Z,64.11
2022-09-16T11:57:59.638Z,64.39
2022-09-16T11:59:10.269Z,65.13
2022-09-16T12:00:16.474Z,65.27
2022-09-16T12:01:29.238Z,65.93
2022-09-16T12:02:40.482Z,66.40
2022-09-16T12:03:49.301Z,66.66
2022-09-16T12:04:58.307Z,66.73
2022-09-16T12:06:07.183Z,67.07
2022-09-16T12:07:15.679Z,67.48
2022-09-16T12:08:23.445Z,67.82
2022-09-16T12:09:32.891Z,67.88
2022-09-16T12:10:43.647Z,67.98
2022-09-16T12:11:52.047Z,67.85
2022-09-16T12:13:00.076Z,67.83
2022-09-16T12:14:10.495Z,67.97
2022-09-16T12:15:17.989Z,68.08
2022-09-16T12:16:28.157Z,67.96
2022-09-16T12:17:35.928Z,68.01
2022-09-16T12:18:42.903Z,68.43
2022-09-16T12:19:52.001Z,68.21
2022-09-16T12:21:06.572Z,68.30
2022-09-16T12:22:16.814Z,68.24
2022-09-16T12:23:21.675Z,68.12
2022-09-16T12:24:31.948Z,67.88
2022-09-16T12:25:45.993Z,68.02
2022-09-16T12:26:56.868Z,68.34
2022-09-16T12:28:04.159Z,67.91
2022-09-16T12:29:14.428Z,67.65
2022-09-16T12:30:19.158Z,67.81
2022-09-16T12:31:27.013Z,67.96
2022-09-16T12:32:37.843Z,67.96
2022-09-16T12:33:44.400Z,67.83
2022-09-16T12:34:51.661Z,67.82
2022-09-16T12:35:58.437Z,68.09
2022-09-16T12:37:08.097Z,67.99
2022-09-16T12:38:16.534Z,68.19
2022-09-16T12:39:18.164Z,68.01
2022-09-16T12:40:24.455Z,68.33
2022-09-16T12:42:06.393Z,68.01
2022-09-16T12:43:29.948Z,68.29
2022-09-16T12:45:00.756Z,68.09
2022-09-16T12:46:22.094Z,68.16
2022-09-16T12:47:42.222Z,68.16
2022-09-16T12:49:22.094Z,67.98
2022-09-16T12:50:50.042Z,67.98
2022-09-16T12:52:31.038Z,67.68
2022-09-16T12:54:00.500Z,67.70
2022-09-16T12:55:37.109Z,67.66
2022-09-16T12:56:51.670Z,67.60
2022-09-16T12:58:12.941Z,67.56
2022-09-16T12:59:43.592Z,67.51
2022-09-16T13:00:57.115Z,67.22
2022-09-16T13:02:04.409Z,67.14
2022-09-16T13:03:14.137Z,67.12
2022-09-16T13:04:19.431Z,67.00
2022-09-16T13:05:30.867Z,66.95
2022-09-16T13:06:41.684Z,66.75
2022-09-16T13:07:43.439Z,66.69
2022-09-16T13:08:46.486Z,66.55
2022-09-16T13:09:48.601Z,66.71
2022-09-16T13:11:19.972Z,66.46
2022-09-16T13:12:39.154Z,66.21
2022-09-16T13:13:49.903Z,66.12
2022-09-16T13:14:54.396Z,66.13
2022-09-16T13:15:58.269Z,65.92
2022-09-16T13:17:03.273Z,65.76
2022-09-16T13:18:10.400Z,65.78
2022-09-16T13:19:34.063Z,65.67
2022-09-16T13:20:41.753Z,65.43
2022-09-16T13:21:45.483Z,65.40
2022-09-16T13:22:53.405Z,65.33
2022-09-16T13:24:03.886Z,65.22
2022-09-16T13:25:12.768Z,65.08
2022-09-16T13:26:14.802Z,64.99
2022-09-16T13:27:26.989Z,64.93
2022-09-16T13:28:38.055Z,65.22
2022-09-16T13:29:44.243Z,64.71
2022-09-16T13:30:46.821Z,64.94
2022-09-16T13:31:49.041Z,64.70
2022-09-16T13:33:13.716Z,64.53
2022-09-16T13:34:18.877Z,64.43
2022-09-16T13:35:39.823Z,64.28
2022-09-16T13:36:42.507Z,64.35
2022-09-16T13:37:44.229Z,64.01
2022-09-16T13:38:52.212Z,63.81
2022-09-16T13:39:53.864Z,63.91
2022-09-16T13:40:58.441Z,63.67
2022-09-16T13:42:11.394Z,63.47
2022-09-16T13:43:14.446Z,63.72
2022-09-16T13:44:41.887Z,63.81
2022-09-16T13:45:45.311Z,63.96
2022-09-16T13:46:47.914Z,63.90
2022-09-16T13:47:50.760Z,63.69
2022-09-16T13:48:59.730Z,63.87
2022-09-16T13:50:12.049Z,63.70
2022-09-16T13:51:18.872Z,63.66
2022-09-16T13:52:25.654Z,63.59
2022-09-16T13:53:30.865Z,63.40
2022-09-16T13:55:09.061Z,63.51
2022-09-16T13:56:17.365Z,63.59
2022-09-16T13:57:31.745Z,63.20
2022-09-16T13:58:38.263Z,63.19
2022-09-16T14:00:04.184Z,62.79
2022-09-16T14:01:27.910Z,62.75
2022-09-16T14:03:07.943Z,62.62
2022-09-16T14:04:19.640Z,62.37
2022-09-16T14:05:36.892Z,62.16
2022-09-16T14:07:07.498Z,61.84
2022-09-16T14:08:18.099Z,61.77
2022-09-16T14:09:31.838Z,61.63
2022-09-16T14:10:45.300Z,61.69
2022-09-16T14:11:53.644Z,61.81
2022-09-16T14:13:03.370Z,61.53
2022-09-16T14:14:15.689Z,61.32
2022-09-16T14:15:28.321Z,61.43
2022-09-16T14:16:34.849Z,61.50
2022-09-16T14:17:40.178Z,61.40
2022-09-16T14:18:54.347Z,61.28
2022-09-16T14:19:58.748Z,60.94
2022-09-16T14:21:02.765Z,61.10
2022-09-16T14:22:06.420Z,61.05
2022-09-16T14:23:17.714Z,61.10
2022-09-16T14:24:22.551Z,61.05
2022-09-16T14:25:29.599Z,61.09
2022-09-16T14:26:32.676Z,61.15
2022-09-16T14:27:39.194Z,61.08
2022-09-16T14:28:42.340Z,61.21
2022-09-16T14:29:54.126Z,61.11
2022-09-16T14:30:58.836Z,61.20
2022-09-16T14:32:03.808Z,61.18
2022-09-16T14:33:08.009Z,61.38
2022-09-16T14:34:16.088Z,61.48